createdAt,value
2023-03-02T07:58:58.672Z,31.85
2023-03-02T08:01:43.852Z,31.37
2023-03-02T08:04:28.792Z,30.72
2023-03-02T08:07:13.860Z,30.35
2023-03-02T08:09:58.735Z,29.41
2023-03-02T08:12:43.769Z,28.43
2023-03-02T08:15:29.068Z,28.45
2023-03-02T08:18:14.370Z,28.29
2023-03-02T08:20:59.160Z,27.76
2023-03-02T08:23:44.178Z,27.78
2023-03-02T08:26:29.080Z,27.44
2023-03-02T08:29:13.819Z,27.16
2023-03-02T08:31:59.187Z,26.76
2023-03-02T08:34:44.339Z,26.48
2023-03-02T08:37:29.389Z,26.43
2023-03-02T08:40:14.134Z,26.22
2023-03-02T08:42:58.893Z,26.39
2023-03-02T08:45:43.789Z,26.03
2023-03-02T08:48:28.697Z,26.46
2023-03-02T08:51:13.747Z,26.02
2023-03-02T08:53:58.792Z,26.27
2023-03-02T08:56:43.766Z,26.63
2023-03-02T08:59:28.760Z,26.86
2023-03-02T09:02:13.539Z,27.03
2023-03-02T09:04:58.454Z,26.78
2023-03-02T09:07:43.311Z,26.14
2023-03-02T09:10:28.287Z,26.22
2023-03-02T09:13:13.093Z,26.58
2023-03-02T09:15:58.736Z,26.69
2023-03-02T09:18:44.163Z,26.95
2023-03-02T09:21:29.481Z,26.33
2023-03-02T09:24:14.298Z,26.53
2023-03-02T09:26:59.287Z,27.35
2023-03-02T09:29:44.387Z,28.37
2023-03-02T09:32:29.393Z,29.01
2023-03-02T09:35:14.707Z,29.15
2023-03-02T09:37:59.896Z,30.31
2023-03-02T09:40:45.600Z,30.31
2023-03-02T09:43:30.813Z,30.92
2023-03-02T09:46:15.777Z,31.20
2023-03-02T09:49:02.590Z,30.98
2023-03-02T09:51:47.867Z,30.82
2023-03-02T09:54:32.874Z,30.90
2023-03-02T09:57:17.699Z,30.10
2023-03-02T10:00:16.473Z,30.71
2023-03-02T10:03:16.299Z,30.86
2023-03-02T10:06:02.209Z,30.14
